Chengdu Shuangliu International Airport
ZUUU : now visible

Airfield :











YOU CAN JOIN US ON...

 
LOGIN :

Register | Disclaimer

   EN    FR    IT 

 









Legend :    VFR   Marginal VFR   IFR   Intensive IFR   Very Intensive IFR
Visi :
Ceiling :
>= 8 km
>= 3000ft
5 to 8 km
1000 to 3000 ft
1500m to 5 km
500 to 1000 ft
800 to 1500m
200 to 500 ft
< 800m
< 200 ft
Symbols :   Thunderstorms  Fog  Heavy snow  Heavy precipitations  Wind > 20 kt






- Airport Elevation : 1625 ft
- IATA code : CTU


ZUUU - Chengdu Shuangliu International

CURRENT METAR :
  • 161900Z 23002MPS CAVOK 08/M00 Q1032 NOSIG

EXPIRED METARs :
  • 161800Z 21001MPS CAVOK 08/01 Q1032 NOSIG
  • 161700Z 23002MPS CAVOK 09/M00 Q1032 NOSIG

TAF TAF ZUUU
Valid from the 16 at 18:00 until the 17 at 18:00 UTC


161420Z 1618/1718 20003MPS 5000 BR SCT050 TX12/1707Z TN02/1623Z



MET'MAP, your aeronautical weather chart ! - Copyright ORBIFLY December 2007 - Disclaimer

ORBIFLY MET'MAP TEAM :

Programming & Development : Alexandra Zaïnal
Concept & original design : Baudouin d'Aumeries
Assistance for programming : Marc-Olivier Méhu
Technical & hardware support : Manuel Goepfert

Contact : metmap@orbifly.com




SOURCES & CREDITS :

   NOAA       Earth
Advisory